sensor_id;sensor_type;location;lat;lon;timestamp;temperature;humidity
29813;DHT22;16707;48.106;11.548;2023-07-08T00:00:18;14.50;99.90
29813;DHT22;16707;48.106;11.548;2023-07-08T00:02:46;14.60;99.90
29813;DHT22;16707;48.106;11.548;2023-07-08T00:05:15;14.60;99.90
29813;DHT22;16707;48.106;11.548;2023-07-08T00:07:42;14.60;99.90
29813;DHT22;16707;48.106;11.548;2023-07-08T00:10:14;14.60;99.90
29813;DHT22;16707;48.106;11.548;2023-07-08T00:12:42;14.60;99.90
29813;DHT22;16707;48.106;11.548;2023-07-08T00:15:12;14.60;99.90
29813;DHT22;16707;48.106;11.548;2023-07-08T00:17:39;14.50;99.90
29813;DHT22;16707;48.106;11.548;2023-07-08T00:20:15;14.50;99.90
29813;DHT22;16707;48.106;11.548;2023-07-08T00:22:44;14.50;99.90
29813;DHT22;16707;48.106;11.548;2023-07-08T00:25:13;14.50;99.90
29813;DHT22;16707;48.106;11.548;2023-07-08T00:27:40;14.50;99.90
29813;DHT22;16707;48.106;11.548;2023-07-08T00:30:18;14.60;99.90
29813;DHT22;16707;48.106;11.548;2023-07-08T00:32:46;14.60;99.90
29813;DHT22;16707;48.106;11.548;2023-07-08T00:35:13;14.60;99.90
29813;DHT22;16707;48.106;11.548;2023-07-08T00:37:40;14.60;99.90
29813;DHT22;16707;48.106;11.548;2023-07-08T00:40:15;14.60;99.90
29813;DHT22;16707;48.106;11.548;2023-07-08T00:42:44;14.70;99.90
29813;DHT22;16707;48.106;11.548;2023-07-08T00:45:24;14.70;99.90
29813;DHT22;16707;48.106;11.548;2023-07-08T00:48:03;14.70;99.90
29813;DHT22;16707;48.106;11.548;2023-07-08T00:50:33;14.70;99.90
29813;DHT22;16707;48.106;11.548;2023-07-08T00:53:26;14.70;99.90
29813;DHT22;16707;48.106;11.548;2023-07-08T00:55:57;14.70;99.90
29813;DHT22;16707;48.106;11.548;2023-07-08T00:58:29;14.70;99.90
29813;DHT22;16707;48.106;11.548;2023-07-08T01:01:01;14.70;99.90
29813;DHT22;16707;48.106;11.548;2023-07-08T01:03:30;14.70;99.90
29813;DHT22;16707;48.106;11.548;2023-07-08T01:05:58;14.70;99.90
29813;DHT22;16707;48.106;11.548;2023-07-08T01:08:27;14.70;99.90
29813;DHT22;16707;48.106;11.548;2023-07-08T01:10:59;14.80;99.90
29813;DHT22;16707;48.106;11.548;2023-07-08T01:13:32;14.80;99.90
29813;DHT22;16707;48.106;11.548;2023-07-08T01:16:04;14.80;99.90
29813;DHT22;16707;48.106;11.548;2023-07-08T01:18:31;14.80;99.90
29813;DHT22;16707;48.106;11.548;2023-07-08T01:21:02;14.80;99.90
29813;DHT22;16707;48.106;11.548;2023-07-08T01:23:34;14.70;99.90
29813;DHT22;16707;48.106;11.548;2023-07-08T01:26:02;14.70;99.90
29813;DHT22;16707;48.106;11.548;2023-07-08T01:28:30;14.70;99.90
29813;DHT22;16707;48.106;11.548;2023-07-08T01:30:57;14.80;99.90
29813;DHT22;16707;48.106;11.548;2023-07-08T01:33:24;14.90;99.90
29813;DHT22;16707;48.106;11.548;2023-07-08T01:35:52;14.90;99.90
29813;DHT22;16707;48.106;11.548;2023-07-08T01:38:24;14.80;99.90
29813;DHT22;16707;48.106;11.548;2023-07-08T01:40:54;14.80;99.90
29813;DHT22;16707;48.106;11.548;2023-07-08T01:43:22;14.70;99.90
29813;DHT22;16707;48.106;11.548;2023-07-08T01:45:51;14.70;99.90
29813;DHT22;16707;48.106;11.548;2023-07-08T01:48:20;14.70;99.90
29813;DHT22;16707;48.106;11.548;2023-07-08T01:50:51;14.70;99.90
29813;DHT22;16707;48.106;11.548;2023-07-08T01:53:29;14.70;99.90
29813;DHT22;16707;48.106;11.548;2023-07-08T01:55:58;14.70;99.90
29813;DHT22;16707;48.106;11.548;2023-07-08T01:58:26;14.70;99.90
29813;DHT22;16707;48.106;11.548;2023-07-08T02:00:53;14.70;99.90
29813;DHT22;16707;48.106;11.548;2023-07-08T02:03:21;14.70;99.90
29813;DHT22;16707;48.106;11.548;2023-07-08T02:05:48;14.70;99.90
29813;DHT22;16707;48.106;11.548;2023-07-08T02:08:15;14.70;99.90
29813;DHT22;16707;48.106;11.548;2023-07-08T02:10:43;14.60;99.90
29813;DHT22;16707;48.106;11.548;2023-07-08T02:13:14;14.70;99.90
29813;DHT22;16707;48.106;11.548;2023-07-08T02:15:41;14.70;99.90
29813;DHT22;16707;48.106;11.548;2023-07-08T02:18:08;14.70;99.90
29813;DHT22;16707;48.106;11.548;2023-07-08T02:20:35;14.70;99.90
29813;DHT22;16707;48.106;11.548;2023-07-08T02:23:02;14.70;99.90
29813;DHT22;16707;48.106;11.548;2023-07-08T02:25:29;14.70;99.90
29813;DHT22;16707;48.106;11.548;2023-07-08T02:27:56;14.70;99.90
29813;DHT22;16707;48.106;11.548;2023-07-08T02:30:24;14.60;99.90
29813;DHT22;16707;48.106;11.548;2023-07-08T02:32:52;14.60;99.90
29813;DHT22;16707;48.106;11.548;2023-07-08T02:35:24;14.50;99.90
29813;DHT22;16707;48.106;11.548;2023-07-08T02:37:52;14.40;99.90
29813;DHT22;16707;48.106;11.548;2023-07-08T02:40:19;14.40;99.90
29813;DHT22;16707;48.106;11.548;2023-07-08T02:42:46;14.30;99.90
29813;DHT22;16707;48.106;11.548;2023-07-08T02:45:14;14.30;99.90
29813;DHT22;16707;48.106;11.548;2023-07-08T02:47:43;14.20;99.90
29813;DHT22;16707;48.106;11.548;2023-07-08T02:50:11;14.30;99.90
29813;DHT22;16707;48.106;11.548;2023-07-08T02:52:38;14.30;99.90
29813;DHT22;16707;48.106;11.548;2023-07-08T02:55:06;14.30;99.90
29813;DHT22;16707;48.106;11.548;2023-07-08T02:57:34;14.30;99.90
29813;DHT22;16707;48.106;11.548;2023-07-08T03:00:01;14.30;99.90
29813;DHT22;16707;48.106;11.548;2023-07-08T03:02:29;14.30;99.90
29813;DHT22;16707;48.106;11.548;2023-07-08T03:04:58;14.30;99.90
29813;DHT22;16707;48.106;11.548;2023-07-08T03:07:26;14.30;99.90
29813;DHT22;16707;48.106;11.548;2023-07-08T03:09:53;14.30;99.90
29813;DHT22;16707;48.106;11.548;2023-07-08T03:12:20;14.30;99.90
29813;DHT22;16707;48.106;11.548;2023-07-08T03:14:47;14.30;99.90
29813;DHT22;16707;48.106;11.548;2023-07-08T03:17:14;14.40;99.90
29813;DHT22;16707;48.106;11.548;2023-07-08T03:19:43;14.50;99.90
29813;DHT22;16707;48.106;11.548;2023-07-08T03:22:11;14.50;99.90
29813;DHT22;16707;48.106;11.548;2023-07-08T03:24:38;14.50;99.90
29813;DHT22;16707;48.106;11.548;2023-07-08T03:27:12;14.60;99.90
29813;DHT22;16707;48.106;11.548;2023-07-08T03:29:38;14.60;99.90
29813;DHT22;16707;48.106;11.548;2023-07-08T03:32:07;14.70;99.90
29813;DHT22;16707;48.106;11.548;2023-07-08T03:34:36;14.70;99.90
29813;DHT22;16707;48.106;11.548;2023-07-08T03:37:04;14.80;99.90
29813;DHT22;16707;48.106;11.548;2023-07-08T03:39:32;14.80;99.90
29813;DHT22;16707;48.106;11.548;2023-07-08T03:41:59;14.90;99.90
29813;DHT22;16707;48.106;11.548;2023-07-08T03:44:27;15.00;99.90
29813;DHT22;16707;48.106;11.548;2023-07-08T03:46:54;15.10;99.90
29813;DHT22;16707;48.106;11.548;2023-07-08T03:49:22;15.20;99.90
29813;DHT22;16707;48.106;11.548;2023-07-08T03:51:50;15.20;99.90
29813;DHT22;16707;48.106;11.548;2023-07-08T03:54:20;15.30;99.90
29813;DHT22;16707;48.106;11.548;2023-07-08T03:56:49;15.30;99.90
29813;DHT22;16707;48.106;11.548;2023-07-08T03:59:16;15.30;99.90
29813;DHT22;16707;48.106;11.548;2023-07-08T04:01:44;15.20;99.90
29813;DHT22;16707;48.106;11.548;2023-07-08T04:04:12;15.20;99.90
29813;DHT22;16707;48.106;11.548;2023-07-08T04:06:43;15.40;99.90
29813;DHT22;16707;48.106;11.548;2023-07-08T04:09:11;15.40;99.90
29813;DHT22;16707;48.106;11.548;2023-07-08T04:11:38;15.50;99.90
29813;DHT22;16707;48.106;11.548;2023-07-08T04:14:07;15.50;99.90
29813;DHT22;16707;48.106;11.548;2023-07-08T04:16:43;15.70;99.90
29813;DHT22;16707;48.106;11.548;2023-07-08T04:19:12;15.80;99.90
29813;DHT22;16707;48.106;11.548;2023-07-08T04:21:41;15.90;99.90
29813;DHT22;16707;48.106;11.548;2023-07-08T04:24:10;16.00;99.90
29813;DHT22;16707;48.106;11.548;2023-07-08T04:26:37;16.10;99.90
29813;DHT22;16707;48.106;11.548;2023-07-08T04:29:07;16.00;99.90
29813;DHT22;16707;48.106;11.548;2023-07-08T04:31:36;16.00;99.90
29813;DHT22;16707;48.106;11.548;2023-07-08T04:34:04;16.00;99.90
29813;DHT22;16707;48.106;11.548;2023-07-08T04:36:32;16.00;99.90
29813;DHT22;16707;48.106;11.548;2023-07-08T04:38:59;16.10;99.90
29813;DHT22;16707;48.106;11.548;2023-07-08T04:41:26;16.10;99.90
29813;DHT22;16707;48.106;11.548;2023-07-08T04:43:53;16.20;99.90
29813;DHT22;16707;48.106;11.548;2023-07-08T04:46:32;16.40;99.90
29813;DHT22;16707;48.106;11.548;2023-07-08T04:49:00;16.50;99.90
29813;DHT22;16707;48.106;11.548;2023-07-08T04:51:28;16.70;99.90
29813;DHT22;16707;48.106;11.548;2023-07-08T04:53:55;16.80;99.90
29813;DHT22;16707;48.106;11.548;2023-07-08T04:56:22;17.00;99.90
29813;DHT22;16707;48.106;11.548;2023-07-08T04:58:51;17.20;99.90
29813;DHT22;16707;48.106;11.548;2023-07-08T05:01:18;17.40;99.90
29813;DHT22;16707;48.106;11.548;2023-07-08T05:03:46;17.70;99.90
29813;DHT22;16707;48.106;11.548;2023-07-08T05:06:13;17.70;99.90
29813;DHT22;16707;48.106;11.548;2023-07-08T05:08:40;17.80;99.90
29813;DHT22;16707;48.106;11.548;2023-07-08T05:11:07;17.90;99.90
29813;DHT22;16707;48.106;11.548;2023-07-08T05:13:34;18.00;99.90
29813;DHT22;16707;48.106;11.548;2023-07-08T05:16:01;18.10;99.90
29813;DHT22;16707;48.106;11.548;2023-07-08T05:18:32;18.50;99.90
29813;DHT22;16707;48.106;11.548;2023-07-08T05:21:02;19.10;99.90
29813;DHT22;16707;48.106;11.548;2023-07-08T05:23:29;19.30;99.90
29813;DHT22;16707;48.106;11.548;2023-07-08T05:26:00;19.60;99.90
29813;DHT22;16707;48.106;11.548;2023-07-08T05:28:27;20.00;99.90
29813;DHT22;16707;48.106;11.548;2023-07-08T05:30:55;20.30;99.90
29813;DHT22;16707;48.106;11.548;2023-07-08T05:33:22;21.30;99.90
29813;DHT22;16707;48.106;11.548;2023-07-08T05:35:50;22.20;98.90
29813;DHT22;16707;48.106;11.548;2023-07-08T05:38:19;24.00;97.20
29813;DHT22;16707;48.106;11.548;2023-07-08T05:40:48;25.40;91.30
29813;DHT22;16707;48.106;11.548;2023-07-08T05:43:16;26.30;85.10
29813;DHT22;16707;48.106;11.548;2023-07-08T05:45:43;27.10;77.50
29813;DHT22;16707;48.106;11.548;2023-07-08T05:48:10;27.60;69.80
29813;DHT22;16707;48.106;11.548;2023-07-08T05:50:38;29.20;63.40
29813;DHT22;16707;48.106;11.548;2023-07-08T05:53:05;30.40;59.40
29813;DHT22;16707;48.106;11.548;2023-07-08T05:55:36;30.00;57.70
29813;DHT22;16707;48.106;11.548;2023-07-08T05:58:03;30.10;55.90
29813;DHT22;16707;48.106;11.548;2023-07-08T06:00:30;31.10;52.80
29813;DHT22;16707;48.106;11.548;2023-07-08T06:02:57;30.70;52.20
29813;DHT22;16707;48.106;11.548;2023-07-08T06:05:24;30.20;51.40
29813;DHT22;16707;48.106;11.548;2023-07-08T06:07:51;29.30;51.20
29813;DHT22;16707;48.106;11.548;2023-07-08T06:10:18;29.60;53.10
29813;DHT22;16707;48.106;11.548;2023-07-08T06:12:46;30.20;50.80
29813;DHT22;16707;48.106;11.548;2023-07-08T06:15:13;30.70;49.50
29813;DHT22;16707;48.106;11.548;2023-07-08T06:17:40;31.00;47.70
29813;DHT22;16707;48.106;11.548;2023-07-08T06:20:08;30.50;49.00
29813;DHT22;16707;48.106;11.548;2023-07-08T06:22:35;29.70;48.30
29813;DHT22;16707;48.106;11.548;2023-07-08T06:25:03;28.80;50.80
29813;DHT22;16707;48.106;11.548;2023-07-08T06:27:30;27.90;53.60
29813;DHT22;16707;48.106;11.548;2023-07-08T06:29:59;27.40;54.80
29813;DHT22;16707;48.106;11.548;2023-07-08T06:32:26;26.80;55.20
29813;DHT22;16707;48.106;11.548;2023-07-08T06:34:52;27.90;55.50
29813;DHT22;16707;48.106;11.548;2023-07-08T06:37:19;27.90;53.10
29813;DHT22;16707;48.106;11.548;2023-07-08T06:39:46;27.60;53.60
29813;DHT22;16707;48.106;11.548;2023-07-08T06:42:13;28.50;55.60
29813;DHT22;16707;48.106;11.548;2023-07-08T06:44:40;29.50;51.80
29813;DHT22;16707;48.106;11.548;2023-07-08T06:47:17;30.80;49.30
29813;DHT22;16707;48.106;11.548;2023-07-08T06:49:45;30.30;49.40
29813;DHT22;16707;48.106;11.548;2023-07-08T06:52:12;29.80;50.80
29813;DHT22;16707;48.106;11.548;2023-07-08T06:54:39;28.70;53.00
29813;DHT22;16707;48.106;11.548;2023-07-08T06:57:07;29.10;52.50
29813;DHT22;16707;48.106;11.548;2023-07-08T06:59:35;28.90;52.30
29813;DHT22;16707;48.106;11.548;2023-07-08T07:02:02;27.50;55.00
29813;DHT22;16707;48.106;11.548;2023-07-08T07:04:31;27.50;56.30
29813;DHT22;16707;48.106;11.548;2023-07-08T07:06:58;27.60;55.90
29813;DHT22;16707;48.106;11.548;2023-07-08T07:09:25;27.80;55.90
29813;DHT22;16707;48.106;11.548;2023-07-08T07:11:52;27.80;56.10
29813;DHT22;16707;48.106;11.548;2023-07-08T07:14:19;27.70;56.50
29813;DHT22;16707;48.106;11.548;2023-07-08T07:16:47;27.70;57.20
29813;DHT22;16707;48.106;11.548;2023-07-08T07:19:13;28.10;58.00
29813;DHT22;16707;48.106;11.548;2023-07-08T07:21:42;30.40;53.40
29813;DHT22;16707;48.106;11.548;2023-07-08T07:24:09;31.80;49.20
29813;DHT22;16707;48.106;11.548;2023-07-08T07:26:37;31.20;49.90
29813;DHT22;16707;48.106;11.548;2023-07-08T07:29:04;30.10;50.10
29813;DHT22;16707;48.106;11.548;2023-07-08T07:31:32;29.30;51.50
29813;DHT22;16707;48.106;11.548;2023-07-08T07:33:59;29.20;50.90
29813;DHT22;16707;48.106;11.548;2023-07-08T07:36:27;28.40;52.80
29813;DHT22;16707;48.106;11.548;2023-07-08T07:38:56;27.90;55.70
29813;DHT22;16707;48.106;11.548;2023-07-08T07:41:23;27.60;56.20
29813;DHT22;16707;48.106;11.548;2023-07-08T07:43:49;27.10;56.60
29813;DHT22;16707;48.106;11.548;2023-07-08T07:46:17;26.30;58.20
29813;DHT22;16707;48.106;11.548;2023-07-08T07:48:44;26.20;59.00
29813;DHT22;16707;48.106;11.548;2023-07-08T07:51:11;26.10;60.30
29813;DHT22;16707;48.106;11.548;2023-07-08T07:53:39;26.20;60.90
29813;DHT22;16707;48.106;11.548;2023-07-08T07:56:08;26.20;61.20
29813;DHT22;16707;48.106;11.548;2023-07-08T07:58:34;26.30;60.30
29813;DHT22;16707;48.106;11.548;2023-07-08T08:01:01;26.40;62.80
29813;DHT22;16707;48.106;11.548;2023-07-08T08:03:28;26.20;61.20
29813;DHT22;16707;48.106;11.548;2023-07-08T08:05:56;26.00;61.50
29813;DHT22;16707;48.106;11.548;2023-07-08T08:08:23;26.20;61.60
29813;DHT22;16707;48.106;11.548;2023-07-08T08:10:50;26.10;61.70
29813;DHT22;16707;48.106;11.548;2023-07-08T08:13:19;26.30;64.40
29813;DHT22;16707;48.106;11.548;2023-07-08T08:15:46;26.00;63.20
29813;DHT22;16707;48.106;11.548;2023-07-08T08:18:13;26.10;63.60
29813;DHT22;16707;48.106;11.548;2023-07-08T08:20:40;26.10;65.60
29813;DHT22;16707;48.106;11.548;2023-07-08T08:23:07;26.30;64.80
29813;DHT22;16707;48.106;11.548;2023-07-08T08:25:34;26.40;61.90
29813;DHT22;16707;48.106;11.548;2023-07-08T08:28:01;26.40;62.20
29813;DHT22;16707;48.106;11.548;2023-07-08T08:30:29;26.70;61.00
29813;DHT22;16707;48.106;11.548;2023-07-08T08:32:58;26.70;63.10
29813;DHT22;16707;48.106;11.548;2023-07-08T08:35:25;26.70;62.00
29813;DHT22;16707;48.106;11.548;2023-07-08T08:37:52;26.80;62.30
29813;DHT22;16707;48.106;11.548;2023-07-08T08:40:20;27.00;62.90
29813;DHT22;16707;48.106;11.548;2023-07-08T08:42:52;26.60;66.20
29813;DHT22;16707;48.106;11.548;2023-07-08T08:45:21;26.40;62.90
29813;DHT22;16707;48.106;11.548;2023-07-08T08:47:56;26.40;61.40
29813;DHT22;16707;48.106;11.548;2023-07-08T08:50:30;26.10;61.50
29813;DHT22;16707;48.106;11.548;2023-07-08T08:53:00;26.00;62.40
29813;DHT22;16707;48.106;11.548;2023-07-08T08:55:29;25.90;63.30
29813;DHT22;16707;48.106;11.548;2023-07-08T08:58:06;26.30;61.50
29813;DHT22;16707;48.106;11.548;2023-07-08T09:00:44;26.00;63.00
29813;DHT22;16707;48.106;11.548;2023-07-08T09:03:32;26.10;62.70
29813;DHT22;16707;48.106;11.548;2023-07-08T09:06:10;26.30;63.30
29813;DHT22;16707;48.106;11.548;2023-07-08T09:08:39;26.80;60.30
29813;DHT22;16707;48.106;11.548;2023-07-08T09:11:18;27.10;57.90
29813;DHT22;16707;48.106;11.548;2023-07-08T09:13:51;27.10;56.20
29813;DHT22;16707;48.106;11.548;2023-07-08T09:16:24;26.80;56.30
29813;DHT22;16707;48.106;11.548;2023-07-08T09:18:59;27.10;58.70
29813;DHT22;16707;48.106;11.548;2023-07-08T09:21:36;27.10;56.80
29813;DHT22;16707;48.106;11.548;2023-07-08T09:24:18;27.30;56.10
29813;DHT22;16707;48.106;11.548;2023-07-08T09:26:50;27.40;56.70
29813;DHT22;16707;48.106;11.548;2023-07-08T09:29:18;28.00;54.20
29813;DHT22;16707;48.106;11.548;2023-07-08T09:31:45;27.30;55.40
29813;DHT22;16707;48.106;11.548;2023-07-08T09:34:16;26.90;57.90
29813;DHT22;16707;48.106;11.548;2023-07-08T09:36:47;27.30;55.70
29813;DHT22;16707;48.106;11.548;2023-07-08T09:39:16;27.70;55.30
29813;DHT22;16707;48.106;11.548;2023-07-08T09:41:46;28.00;54.50
29813;DHT22;16707;48.106;11.548;2023-07-08T09:44:18;27.80;53.90
29813;DHT22;16707;48.106;11.548;2023-07-08T09:46:51;27.80;54.00
29813;DHT22;16707;48.106;11.548;2023-07-08T09:49:23;27.60;54.70
29813;DHT22;16707;48.106;11.548;2023-07-08T09:51:52;28.20;54.90
29813;DHT22;16707;48.106;11.548;2023-07-08T09:54:21;28.60;55.30
29813;DHT22;16707;48.106;11.548;2023-07-08T09:56:57;28.10;52.00
29813;DHT22;16707;48.106;11.548;2023-07-08T09:59:29;27.80;52.80
29813;DHT22;16707;48.106;11.548;2023-07-08T10:02:00;27.80;52.50
29813;DHT22;16707;48.106;11.548;2023-07-08T10:04:30;28.10;52.30
29813;DHT22;16707;48.106;11.548;2023-07-08T10:06:59;28.60;52.30
29813;DHT22;16707;48.106;11.548;2023-07-08T10:09:27;28.80;52.50
29813;DHT22;16707;48.106;11.548;2023-07-08T10:11:58;29.10;53.00
29813;DHT22;16707;48.106;11.548;2023-07-08T10:14:31;29.10;52.10
29813;DHT22;16707;48.106;11.548;2023-07-08T10:16:59;28.70;49.60
29813;DHT22;16707;48.106;11.548;2023-07-08T10:19:27;28.10;50.40
29813;DHT22;16707;48.106;11.548;2023-07-08T10:22:20;27.70;51.70
29813;DHT22;16707;48.106;11.548;2023-07-08T10:25:11;27.80;50.90
29813;DHT22;16707;48.106;11.548;2023-07-08T10:27:50;27.60;51.50
29813;DHT22;16707;48.106;11.548;2023-07-08T10:30:22;27.40;51.60
29813;DHT22;16707;48.106;11.548;2023-07-08T10:33:05;27.60;52.80
29813;DHT22;16707;48.106;11.548;2023-07-08T10:35:44;27.60;52.00
29813;DHT22;16707;48.106;11.548;2023-07-08T10:38:30;27.70;52.90
29813;DHT22;16707;48.106;11.548;2023-07-08T10:41:12;27.50;53.10
29813;DHT22;16707;48.106;11.548;2023-07-08T10:43:58;27.10;53.00
29813;DHT22;16707;48.106;11.548;2023-07-08T10:46:37;26.80;54.60
29813;DHT22;16707;48.106;11.548;2023-07-08T10:49:24;26.40;54.10
29813;DHT22;16707;48.106;11.548;2023-07-08T10:52:20;26.40;54.50
29813;DHT22;16707;48.106;11.548;2023-07-08T10:55:05;26.60;54.70
29813;DHT22;16707;48.106;11.548;2023-07-08T11:00:45;26.80;55.40
29813;DHT22;16707;48.106;11.548;2023-07-08T11:03:43;27.20;53.00
29813;DHT22;16707;48.106;11.548;2023-07-08T11:06:29;27.40;52.60
29813;DHT22;16707;48.106;11.548;2023-07-08T11:09:16;27.30;52.60
29813;DHT22;16707;48.106;11.548;2023-07-08T11:11:52;27.40;51.50
29813;DHT22;16707;48.106;11.548;2023-07-08T11:14:26;27.50;52.60
29813;DHT22;16707;48.106;11.548;2023-07-08T11:17:10;27.70;51.70
29813;DHT22;16707;48.106;11.548;2023-07-08T11:19:45;27.60;51.40
29813;DHT22;16707;48.106;11.548;2023-07-08T11:22:15;27.20;52.50
29813;DHT22;16707;48.106;11.548;2023-07-08T11:24:46;27.40;53.20
29813;DHT22;16707;48.106;11.548;2023-07-08T11:27:20;27.40;52.60
29813;DHT22;16707;48.106;11.548;2023-07-08T11:29:54;27.50;52.30
29813;DHT22;16707;48.106;11.548;2023-07-08T11:32:25;27.50;52.00
29813;DHT22;16707;48.106;11.548;2023-07-08T11:34:54;27.60;51.50
29813;DHT22;16707;48.106;11.548;2023-07-08T11:37:24;27.80;51.40
29813;DHT22;16707;48.106;11.548;2023-07-08T11:39:58;27.50;50.60
29813;DHT22;16707;48.106;11.548;2023-07-08T11:42:34;27.50;50.80
29813;DHT22;16707;48.106;11.548;2023-07-08T11:45:11;27.60;52.50
29813;DHT22;16707;48.106;11.548;2023-07-08T11:47:45;27.60;50.60
29813;DHT22;16707;48.106;11.548;2023-07-08T11:50:14;27.70;51.30
29813;DHT22;16707;48.106;11.548;2023-07-08T11:52:52;28.00;50.00
29813;DHT22;16707;48.106;11.548;2023-07-08T11:55:23;28.20;50.30
29813;DHT22;16707;48.106;11.548;2023-07-08T11:57:55;28.20;51.50
29813;DHT22;16707;48.106;11.548;2023-07-08T12:00:25;28.20;49.30
29813;DHT22;16707;48.106;11.548;2023-07-08T12:02:55;28.10;49.90
29813;DHT22;16707;48.106;11.548;2023-07-08T12:05:33;27.90;50.70
29813;DHT22;16707;48.106;11.548;2023-07-08T12:08:03;27.80;50.90
29813;DHT22;16707;48.106;11.548;2023-07-08T12:10:40;27.90;49.80
29813;DHT22;16707;48.106;11.548;2023-07-08T12:13:12;27.70;51.00
29813;DHT22;16707;48.106;11.548;2023-07-08T12:15:41;27.70;51.10
29813;DHT22;16707;48.106;11.548;2023-07-08T12:18:13;27.90;50.20
29813;DHT22;16707;48.106;11.548;2023-07-08T12:20:45;28.20;49.50
29813;DHT22;16707;48.106;11.548;2023-07-08T12:23:15;28.40;49.90
29813;DHT22;16707;48.106;11.548;2023-07-08T12:25:44;28.60;51.20
29813;DHT22;16707;48.106;11.548;2023-07-08T12:28:14;28.80;49.30
29813;DHT22;16707;48.106;11.548;2023-07-08T12:30:43;28.90;49.00
29813;DHT22;16707;48.106;11.548;2023-07-08T12:33:12;29.20;49.00
29813;DHT22;16707;48.106;11.548;2023-07-08T12:35:41;29.40;47.70
29813;DHT22;16707;48.106;11.548;2023-07-08T12:38:17;29.50;46.80
29813;DHT22;16707;48.106;11.548;2023-07-08T12:40:46;29.70;47.00
29813;DHT22;16707;48.106;11.548;2023-07-08T12:43:16;29.80;46.60
29813;DHT22;16707;48.106;11.548;2023-07-08T12:45:44;30.10;48.40
29813;DHT22;16707;48.106;11.548;2023-07-08T12:48:11;30.50;46.10
29813;DHT22;16707;48.106;11.548;2023-07-08T12:50:38;30.80;45.20
29813;DHT22;16707;48.106;11.548;2023-07-08T12:53:05;31.00;44.70
29813;DHT22;16707;48.106;11.548;2023-07-08T12:55:36;30.40;42.60
29813;DHT22;16707;48.106;11.548;2023-07-08T12:58:05;30.30;41.90
29813;DHT22;16707;48.106;11.548;2023-07-08T13:00:38;30.30;41.30
29813;DHT22;16707;48.106;11.548;2023-07-08T13:03:10;30.60;41.90
29813;DHT22;16707;48.106;11.548;2023-07-08T13:05:39;30.50;39.50
29813;DHT22;16707;48.106;11.548;2023-07-08T13:08:07;30.40;38.90
29813;DHT22;16707;48.106;11.548;2023-07-08T13:10:35;30.10;38.10
29813;DHT22;16707;48.106;11.548;2023-07-08T13:13:06;29.80;38.20
29813;DHT22;16707;48.106;11.548;2023-07-08T13:15:39;30.10;37.80
29813;DHT22;16707;48.106;11.548;2023-07-08T13:18:14;30.10;38.90
29813;DHT22;16707;48.106;11.548;2023-07-08T13:20:43;30.10;37.50
29813;DHT22;16707;48.106;11.548;2023-07-08T13:23:12;30.00;37.50
29813;DHT22;16707;48.106;11.548;2023-07-08T13:25:39;30.00;38.60
29813;DHT22;16707;48.106;11.548;2023-07-08T13:28:16;29.70;40.20
29813;DHT22;16707;48.106;11.548;2023-07-08T13:30:52;29.90;39.30
29813;DHT22;16707;48.106;11.548;2023-07-08T13:33:21;30.00;38.50
29813;DHT22;16707;48.106;11.548;2023-07-08T13:35:49;30.10;36.90
29813;DHT22;16707;48.106;11.548;2023-07-08T13:38:19;29.80;38.70
29813;DHT22;16707;48.106;11.548;2023-07-08T13:40:49;29.70;39.60
29813;DHT22;16707;48.106;11.548;2023-07-08T13:43:23;29.50;39.80
29813;DHT22;16707;48.106;11.548;2023-07-08T13:45:54;29.50;40.30
29813;DHT22;16707;48.106;11.548;2023-07-08T13:48:24;29.50;38.80
29813;DHT22;16707;48.106;11.548;2023-07-08T13:50:57;29.40;39.50
29813;DHT22;16707;48.106;11.548;2023-07-08T13:53:27;29.00;38.90
29813;DHT22;16707;48.106;11.548;2023-07-08T13:56:03;29.10;39.40
29813;DHT22;16707;48.106;11.548;2023-07-08T13:58:31;29.20;40.20
29813;DHT22;16707;48.106;11.548;2023-07-08T14:00:59;29.40;40.20
29813;DHT22;16707;48.106;11.548;2023-07-08T14:03:26;29.50;40.20
29813;DHT22;16707;48.106;11.548;2023-07-08T14:05:53;29.40;38.70
29813;DHT22;16707;48.106;11.548;2023-07-08T14:08:20;29.50;37.20
29813;DHT22;16707;48.106;11.548;2023-07-08T14:10:48;29.60;36.00
29813;DHT22;16707;48.106;11.548;2023-07-08T14:13:15;29.50;36.30
29813;DHT22;16707;48.106;11.548;2023-07-08T14:15:43;29.50;37.40
29813;DHT22;16707;48.106;11.548;2023-07-08T14:18:13;29.60;38.90
29813;DHT22;16707;48.106;11.548;2023-07-08T14:20:40;29.50;35.90
29813;DHT22;16707;48.106;11.548;2023-07-08T14:23:09;29.50;36.30
29813;DHT22;16707;48.106;11.548;2023-07-08T14:25:38;29.60;36.30
29813;DHT22;16707;48.106;11.548;2023-07-08T14:28:05;29.50;37.40
29813;DHT22;16707;48.106;11.548;2023-07-08T14:30:43;29.30;38.40
29813;DHT22;16707;48.106;11.548;2023-07-08T14:33:13;29.30;38.50
29813;DHT22;16707;48.106;11.548;2023-07-08T14:35:41;29.30;38.90
29813;DHT22;16707;48.106;11.548;2023-07-08T14:38:10;29.30;38.50
29813;DHT22;16707;48.106;11.548;2023-07-08T14:40:40;29.30;37.60
29813;DHT22;16707;48.106;11.548;2023-07-08T14:43:15;29.40;37.80
29813;DHT22;16707;48.106;11.548;2023-07-08T14:45:47;29.60;36.80
29813;DHT22;16707;48.106;11.548;2023-07-08T14:48:17;29.70;37.10
29813;DHT22;16707;48.106;11.548;2023-07-08T14:50:44;29.90;39.70
29813;DHT22;16707;48.106;11.548;2023-07-08T14:53:13;29.80;41.20
29813;DHT22;16707;48.106;11.548;2023-07-08T14:55:40;29.80;39.50
29813;DHT22;16707;48.106;11.548;2023-07-08T14:58:08;29.70;40.00
29813;DHT22;16707;48.106;11.548;2023-07-08T15:00:36;29.90;39.70
29813;DHT22;16707;48.106;11.548;2023-07-08T15:03:03;29.80;40.40
29813;DHT22;16707;48.106;11.548;2023-07-08T15:05:31;29.70;41.80
29813;DHT22;16707;48.106;11.548;2023-07-08T15:07:58;29.80;39.80
29813;DHT22;16707;48.106;11.548;2023-07-08T15:10:28;30.30;37.70
29813;DHT22;16707;48.106;11.548;2023-07-08T15:12:57;30.40;38.10
29813;DHT22;16707;48.106;11.548;2023-07-08T15:15:28;30.40;37.60
29813;DHT22;16707;48.106;11.548;2023-07-08T15:17:56;30.20;39.20
29813;DHT22;16707;48.106;11.548;2023-07-08T15:20:24;30.10;37.10
29813;DHT22;16707;48.106;11.548;2023-07-08T15:22:53;30.20;38.00
29813;DHT22;16707;48.106;11.548;2023-07-08T15:25:20;30.00;37.20
29813;DHT22;16707;48.106;11.548;2023-07-08T15:27:50;30.30;37.50
29813;DHT22;16707;48.106;11.548;2023-07-08T15:30:20;30.30;38.10
29813;DHT22;16707;48.106;11.548;2023-07-08T15:32:49;30.00;40.80
29813;DHT22;16707;48.106;11.548;2023-07-08T15:35:18;30.00;42.70